Terminal Aerodrome Forecast
Issued by NWS Detroit/Pontiac, MI

Home | Current Version | Previous Version | Text Only | Print | Product List | Glossary On
Versions: 1 2 3 4 5 6 7 8 9 10 11 12 13 14 15 16 17 18
000
FTUS43 KDTX 021100
TAFFNT
TAF
KFNT 021125Z 0212/0312 15008KT 5SM BR BKN012
     FM021400 16009KT P6SM BKN060 OVC120
      TEMPO 0219/0223 6SM -SHRA OVC050
     FM030700 19013KT 6SM -SHRA SCT028 OVC040=

USA.gov is the U.S. government's official web portal to all federal, state and local government web resources and services.